sensor_id;sensor_type;location;lat;lon;timestamp;P1;durP1;ratioP1;P2;durP2;ratioP2
5491;SDS011;2768;53.540;10.224;2024-03-07T00:03:41;21.40;;;17.20;;
5491;SDS011;2768;53.540;10.224;2024-03-07T00:09:34;23.70;;;16.53;;
5491;SDS011;2768;53.540;10.224;2024-03-07T00:15:29;25.57;;;17.07;;
5491;SDS011;2768;53.540;10.224;2024-03-07T00:21:22;20.87;;;15.07;;
5491;SDS011;2768;53.540;10.224;2024-03-07T00:27:15;18.07;;;15.57;;
5491;SDS011;2768;53.540;10.224;2024-03-07T00:33:10;21.33;;;14.30;;
5491;SDS011;2768;53.540;10.224;2024-03-07T00:39:03;21.97;;;15.53;;
5491;SDS011;2768;53.540;10.224;2024-03-07T00:44:59;22.43;;;14.70;;
5491;SDS011;2768;53.540;10.224;2024-03-07T00:50:54;22.93;;;15.90;;
5491;SDS011;2768;53.540;10.224;2024-03-07T00:56:47;19.27;;;14.57;;
5491;SDS011;2768;53.540;10.224;2024-03-07T01:02:41;25.23;;;16.10;;
5491;SDS011;2768;53.540;10.224;2024-03-07T01:08:37;25.87;;;16.37;;
5491;SDS011;2768;53.540;10.224;2024-03-07T01:14:30;20.80;;;15.47;;
5491;SDS011;2768;53.540;10.224;2024-03-07T01:20:24;21.60;;;14.63;;
5491;SDS011;2768;53.540;10.224;2024-03-07T01:26:18;21.77;;;15.50;;
5491;SDS011;2768;53.540;10.224;2024-03-07T01:32:12;23.37;;;15.97;;
5491;SDS011;2768;53.540;10.224;2024-03-07T01:38:05;20.70;;;15.30;;
5491;SDS011;2768;53.540;10.224;2024-03-07T01:44:01;24.90;;;15.37;;
5491;SDS011;2768;53.540;10.224;2024-03-07T01:49:54;21.90;;;14.63;;
5491;SDS011;2768;53.540;10.224;2024-03-07T01:55:47;19.70;;;14.00;;
5491;SDS011;2768;53.540;10.224;2024-03-07T02:01:43;23.37;;;15.30;;
5491;SDS011;2768;53.540;10.224;2024-03-07T02:07:38;26.60;;;17.40;;
5491;SDS011;2768;53.540;10.224;2024-03-07T02:13:31;27.43;;;16.93;;
5491;SDS011;2768;53.540;10.224;2024-03-07T02:19:26;23.50;;;16.40;;
5491;SDS011;2768;53.540;10.224;2024-03-07T02:25:21;23.40;;;15.60;;
5491;SDS011;2768;53.540;10.224;2024-03-07T02:31:14;24.20;;;16.90;;
5491;SDS011;2768;53.540;10.224;2024-03-07T02:37:08;28.00;;;17.37;;
5491;SDS011;2768;53.540;10.224;2024-03-07T02:43:03;26.07;;;16.90;;
5491;SDS011;2768;53.540;10.224;2024-03-07T02:48:56;28.23;;;17.77;;
5491;SDS011;2768;53.540;10.224;2024-03-07T02:54:50;23.83;;;15.70;;
5491;SDS011;2768;53.540;10.224;2024-03-07T03:00:45;24.00;;;15.27;;
5491;SDS011;2768;53.540;10.224;2024-03-07T03:06:40;22.50;;;15.60;;
5491;SDS011;2768;53.540;10.224;2024-03-07T03:12:34;23.23;;;14.57;;
5491;SDS011;2768;53.540;10.224;2024-03-07T03:18:30;22.03;;;14.00;;
5491;SDS011;2768;53.540;10.224;2024-03-07T03:24:23;24.50;;;16.17;;
5491;SDS011;2768;53.540;10.224;2024-03-07T03:30:18;23.60;;;13.63;;
5491;SDS011;2768;53.540;10.224;2024-03-07T03:36:14;18.73;;;14.20;;
5491;SDS011;2768;53.540;10.224;2024-03-07T03:42:07;22.00;;;14.60;;
5491;SDS011;2768;53.540;10.224;2024-03-07T03:48:01;19.40;;;14.17;;
5491;SDS011;2768;53.540;10.224;2024-03-07T03:53:56;22.00;;;14.20;;
5491;SDS011;2768;53.540;10.224;2024-03-07T03:59:50;16.73;;;13.80;;
5491;SDS011;2768;53.540;10.224;2024-03-07T04:05:43;16.70;;;12.90;;
5491;SDS011;2768;53.540;10.224;2024-03-07T04:11:39;18.90;;;13.97;;
5491;SDS011;2768;53.540;10.224;2024-03-07T04:17:33;15.80;;;12.57;;
5491;SDS011;2768;53.540;10.224;2024-03-07T04:23:27;18.43;;;13.03;;
5491;SDS011;2768;53.540;10.224;2024-03-07T04:29:21;20.60;;;13.10;;
5491;SDS011;2768;53.540;10.224;2024-03-07T04:35:15;17.03;;;12.77;;
5491;SDS011;2768;53.540;10.224;2024-03-07T04:41:10;15.20;;;12.23;;
5491;SDS011;2768;53.540;10.224;2024-03-07T04:47:08;17.87;;;12.50;;
5491;SDS011;2768;53.540;10.224;2024-03-07T04:53:01;16.90;;;12.70;;
5491;SDS011;2768;53.540;10.224;2024-03-07T04:58:54;17.17;;;12.23;;
5491;SDS011;2768;53.540;10.224;2024-03-07T05:04:49;16.27;;;12.03;;
5491;SDS011;2768;53.540;10.224;2024-03-07T05:10:44;16.03;;;12.00;;
5491;SDS011;2768;53.540;10.224;2024-03-07T05:16:37;13.50;;;11.10;;
5491;SDS011;2768;53.540;10.224;2024-03-07T05:22:32;12.37;;;11.07;;
5491;SDS011;2768;53.540;10.224;2024-03-07T05:28:25;15.47;;;12.63;;
5491;SDS011;2768;53.540;10.224;2024-03-07T05:34:18;14.10;;;12.07;;
5491;SDS011;2768;53.540;10.224;2024-03-07T05:40:17;15.30;;;10.77;;
5491;SDS011;2768;53.540;10.224;2024-03-07T05:46:10;19.40;;;12.63;;
5491;SDS011;2768;53.540;10.224;2024-03-07T05:52:04;16.50;;;12.03;;
5491;SDS011;2768;53.540;10.224;2024-03-07T05:57:59;14.43;;;11.97;;
5491;SDS011;2768;53.540;10.224;2024-03-07T06:03:52;14.97;;;12.40;;
5491;SDS011;2768;53.540;10.224;2024-03-07T06:09:46;18.83;;;12.83;;
5491;SDS011;2768;53.540;10.224;2024-03-07T06:15:42;14.13;;;11.57;;
5491;SDS011;2768;53.540;10.224;2024-03-07T06:21:36;13.47;;;10.80;;
5491;SDS011;2768;53.540;10.224;2024-03-07T06:27:32;13.73;;;11.30;;
5491;SDS011;2768;53.540;10.224;2024-03-07T06:33:30;14.40;;;10.93;;
5491;SDS011;2768;53.540;10.224;2024-03-07T06:39:24;11.60;;;10.30;;
5491;SDS011;2768;53.540;10.224;2024-03-07T06:45:18;11.17;;;9.93;;
5491;SDS011;2768;53.540;10.224;2024-03-07T06:51:12;14.70;;;11.33;;
5491;SDS011;2768;53.540;10.224;2024-03-07T06:57:05;14.50;;;11.57;;
5491;SDS011;2768;53.540;10.224;2024-03-07T07:02:59;12.87;;;11.07;;
5491;SDS011;2768;53.540;10.224;2024-03-07T07:08:56;12.10;;;10.80;;
5491;SDS011;2768;53.540;10.224;2024-03-07T07:14:54;11.03;;;9.70;;
5491;SDS011;2768;53.540;10.224;2024-03-07T07:20:47;10.93;;;9.83;;
5491;SDS011;2768;53.540;10.224;2024-03-07T07:26:42;14.57;;;9.13;;
5491;SDS011;2768;53.540;10.224;2024-03-07T07:32:36;11.43;;;8.97;;
5491;SDS011;2768;53.540;10.224;2024-03-07T07:38:29;14.00;;;10.77;;
5491;SDS011;2768;53.540;10.224;2024-03-07T07:44:24;10.20;;;9.10;;
5491;SDS011;2768;53.540;10.224;2024-03-07T07:50:19;15.80;;;10.50;;
5491;SDS011;2768;53.540;10.224;2024-03-07T07:56:12;11.50;;;10.20;;
5491;SDS011;2768;53.540;10.224;2024-03-07T08:02:08;10.77;;;9.37;;
5491;SDS011;2768;53.540;10.224;2024-03-07T08:08:03;12.03;;;9.70;;
5491;SDS011;2768;53.540;10.224;2024-03-07T08:13:59;15.03;;;10.23;;
5491;SDS011;2768;53.540;10.224;2024-03-07T08:19:53;14.00;;;10.60;;
5491;SDS011;2768;53.540;10.224;2024-03-07T08:25:47;11.37;;;9.57;;
5491;SDS011;2768;53.540;10.224;2024-03-07T08:31:41;10.40;;;9.03;;
5491;SDS011;2768;53.540;10.224;2024-03-07T08:37:37;11.40;;;9.00;;
5491;SDS011;2768;53.540;10.224;2024-03-07T08:43:30;12.00;;;10.00;;
5491;SDS011;2768;53.540;10.224;2024-03-07T08:49:24;12.37;;;10.33;;
5491;SDS011;2768;53.540;10.224;2024-03-07T08:55:19;16.37;;;10.87;;
5491;SDS011;2768;53.540;10.224;2024-03-07T09:01:13;14.20;;;11.37;;
5491;SDS011;2768;53.540;10.224;2024-03-07T09:07:07;13.00;;;11.60;;
5491;SDS011;2768;53.540;10.224;2024-03-07T09:13:02;13.13;;;11.27;;
5491;SDS011;2768;53.540;10.224;2024-03-07T09:18:57;14.97;;;12.03;;
5491;SDS011;2768;53.540;10.224;2024-03-07T09:24:51;13.80;;;11.60;;
5491;SDS011;2768;53.540;10.224;2024-03-07T09:30:45;15.80;;;12.53;;
5491;SDS011;2768;53.540;10.224;2024-03-07T09:36:40;16.03;;;11.20;;
5491;SDS011;2768;53.540;10.224;2024-03-07T09:42:34;14.27;;;12.20;;
5491;SDS011;2768;53.540;10.224;2024-03-07T09:48:32;16.53;;;12.50;;
5491;SDS011;2768;53.540;10.224;2024-03-07T09:54:26;15.43;;;12.57;;
5491;SDS011;2768;53.540;10.224;2024-03-07T10:00:21;17.03;;;13.97;;
5491;SDS011;2768;53.540;10.224;2024-03-07T10:06:21;17.83;;;13.97;;
5491;SDS011;2768;53.540;10.224;2024-03-07T10:12:15;14.63;;;11.80;;
5491;SDS011;2768;53.540;10.224;2024-03-07T10:18:10;15.00;;;12.37;;
5491;SDS011;2768;53.540;10.224;2024-03-07T10:24:07;14.87;;;12.80;;
5491;SDS011;2768;53.540;10.224;2024-03-07T10:30:03;20.27;;;13.97;;
5491;SDS011;2768;53.540;10.224;2024-03-07T10:35:59;17.73;;;12.30;;
5491;SDS011;2768;53.540;10.224;2024-03-07T10:41:54;17.77;;;13.53;;
5491;SDS011;2768;53.540;10.224;2024-03-07T10:47:52;17.50;;;13.80;;
5491;SDS011;2768;53.540;10.224;2024-03-07T10:53:59;16.63;;;12.73;;
5491;SDS011;2768;53.540;10.224;2024-03-07T11:00:03;19.30;;;14.73;;
5491;SDS011;2768;53.540;10.224;2024-03-07T11:06:21;17.97;;;13.63;;
5491;SDS011;2768;53.540;10.224;2024-03-07T11:12:15;23.67;;;15.90;;
5491;SDS011;2768;53.540;10.224;2024-03-07T11:18:10;18.07;;;13.50;;
5491;SDS011;2768;53.540;10.224;2024-03-07T11:24:05;17.50;;;14.13;;
5491;SDS011;2768;53.540;10.224;2024-03-07T11:30:04;20.30;;;14.47;;
5491;SDS011;2768;53.540;10.224;2024-03-07T11:36:00;21.47;;;13.20;;
5491;SDS011;2768;53.540;10.224;2024-03-07T11:41:55;18.70;;;13.60;;
5491;SDS011;2768;53.540;10.224;2024-03-07T11:47:49;17.70;;;14.00;;
5491;SDS011;2768;53.540;10.224;2024-03-07T11:53:44;19.67;;;13.70;;
5491;SDS011;2768;53.540;10.224;2024-03-07T11:59:40;17.67;;;13.50;;
5491;SDS011;2768;53.540;10.224;2024-03-07T12:05:38;19.70;;;14.80;;
5491;SDS011;2768;53.540;10.224;2024-03-07T12:11:34;22.20;;;15.23;;
5491;SDS011;2768;53.540;10.224;2024-03-07T12:17:28;16.83;;;13.80;;
5491;SDS011;2768;53.540;10.224;2024-03-07T12:23:24;17.73;;;13.77;;
5491;SDS011;2768;53.540;10.224;2024-03-07T12:29:25;21.40;;;16.40;;
5491;SDS011;2768;53.540;10.224;2024-03-07T12:35:19;20.07;;;15.27;;
5491;SDS011;2768;53.540;10.224;2024-03-07T12:41:13;18.50;;;13.63;;
5491;SDS011;2768;53.540;10.224;2024-03-07T12:47:10;20.97;;;15.30;;
5491;SDS011;2768;53.540;10.224;2024-03-07T12:53:05;18.60;;;14.90;;
5491;SDS011;2768;53.540;10.224;2024-03-07T12:59:03;21.10;;;16.30;;
5491;SDS011;2768;53.540;10.224;2024-03-07T13:04:58;20.73;;;15.43;;
5491;SDS011;2768;53.540;10.224;2024-03-07T13:10:52;20.83;;;16.20;;
5491;SDS011;2768;53.540;10.224;2024-03-07T13:16:47;22.20;;;15.63;;
5491;SDS011;2768;53.540;10.224;2024-03-07T13:22:43;20.13;;;14.30;;
5491;SDS011;2768;53.540;10.224;2024-03-07T13:28:39;17.67;;;14.83;;
5491;SDS011;2768;53.540;10.224;2024-03-07T13:34:34;19.70;;;14.03;;
5491;SDS011;2768;53.540;10.224;2024-03-07T13:40:30;20.57;;;15.40;;
5491;SDS011;2768;53.540;10.224;2024-03-07T13:46:27;17.83;;;15.93;;
5491;SDS011;2768;53.540;10.224;2024-03-07T13:52:20;17.03;;;14.87;;
5491;SDS011;2768;53.540;10.224;2024-03-07T13:58:17;18.40;;;13.77;;
5491;SDS011;2768;53.540;10.224;2024-03-07T14:11:27;17.70;;;13.30;;
5491;SDS011;2768;53.540;10.224;2024-03-07T14:18:03;14.43;;;12.93;;
5491;SDS011;2768;53.540;10.224;2024-03-07T14:30:57;17.03;;;13.93;;
5491;SDS011;2768;53.540;10.224;2024-03-07T14:36:53;19.00;;;13.40;;
5491;SDS011;2768;53.540;10.224;2024-03-07T14:42:49;19.67;;;15.23;;
5491;SDS011;2768;53.540;10.224;2024-03-07T14:48:43;15.33;;;12.20;;
5491;SDS011;2768;53.540;10.224;2024-03-07T14:54:38;16.97;;;14.57;;
5491;SDS011;2768;53.540;10.224;2024-03-07T15:00:32;16.73;;;13.43;;
5491;SDS011;2768;53.540;10.224;2024-03-07T15:06:36;15.07;;;13.47;;
5491;SDS011;2768;53.540;10.224;2024-03-07T15:12:31;18.90;;;13.50;;
5491;SDS011;2768;53.540;10.224;2024-03-07T15:18:25;16.83;;;12.77;;
5491;SDS011;2768;53.540;10.224;2024-03-07T15:24:19;16.80;;;13.77;;
5491;SDS011;2768;53.540;10.224;2024-03-07T15:30:15;17.30;;;12.23;;
5491;SDS011;2768;53.540;10.224;2024-03-07T15:36:10;14.30;;;11.97;;
5491;SDS011;2768;53.540;10.224;2024-03-07T15:42:03;15.80;;;11.53;;
5491;SDS011;2768;53.540;10.224;2024-03-07T15:48:06;15.13;;;12.50;;
5491;SDS011;2768;53.540;10.224;2024-03-07T15:54:02;16.37;;;11.77;;
5491;SDS011;2768;53.540;10.224;2024-03-07T15:59:56;15.60;;;12.17;;
5491;SDS011;2768;53.540;10.224;2024-03-07T16:05:52;15.03;;;12.13;;
5491;SDS011;2768;53.540;10.224;2024-03-07T16:11:46;17.20;;;13.20;;
5491;SDS011;2768;53.540;10.224;2024-03-07T16:17:39;21.37;;;15.70;;
5491;SDS011;2768;53.540;10.224;2024-03-07T16:23:34;26.70;;;16.57;;
5491;SDS011;2768;53.540;10.224;2024-03-07T16:29:34;28.93;;;18.13;;
5491;SDS011;2768;53.540;10.224;2024-03-07T16:35:28;27.77;;;19.00;;
5491;SDS011;2768;53.540;10.224;2024-03-07T16:41:24;29.70;;;19.00;;
5491;SDS011;2768;53.540;10.224;2024-03-07T16:47:19;27.77;;;17.50;;
5491;SDS011;2768;53.540;10.224;2024-03-07T16:53:15;26.47;;;17.23;;
5491;SDS011;2768;53.540;10.224;2024-03-07T16:59:10;25.00;;;17.87;;
5491;SDS011;2768;53.540;10.224;2024-03-07T17:05:04;30.50;;;19.00;;
5491;SDS011;2768;53.540;10.224;2024-03-07T17:11:07;28.47;;;18.20;;
5491;SDS011;2768;53.540;10.224;2024-03-07T17:17:03;28.23;;;17.93;;
5491;SDS011;2768;53.540;10.224;2024-03-07T17:22:58;27.17;;;18.80;;
5491;SDS011;2768;53.540;10.224;2024-03-07T17:28:52;27.20;;;18.50;;
5491;SDS011;2768;53.540;10.224;2024-03-07T17:34:47;23.17;;;17.27;;
5491;SDS011;2768;53.540;10.224;2024-03-07T17:40:40;20.83;;;17.03;;
5491;SDS011;2768;53.540;10.224;2024-03-07T17:46:34;20.70;;;17.30;;
5491;SDS011;2768;53.540;10.224;2024-03-07T17:52:29;22.90;;;17.33;;
5491;SDS011;2768;53.540;10.224;2024-03-07T17:58:23;18.57;;;16.20;;
5491;SDS011;2768;53.540;10.224;2024-03-07T18:04:20;22.00;;;17.50;;
5491;SDS011;2768;53.540;10.224;2024-03-07T18:10:17;20.90;;;14.93;;
5491;SDS011;2768;53.540;10.224;2024-03-07T18:16:11;16.93;;;15.10;;
5491;SDS011;2768;53.540;10.224;2024-03-07T18:22:07;19.53;;;16.37;;
5491;SDS011;2768;53.540;10.224;2024-03-07T18:28:03;22.20;;;15.90;;
5491;SDS011;2768;53.540;10.224;2024-03-07T18:33:57;20.20;;;14.90;;
5491;SDS011;2768;53.540;10.224;2024-03-07T18:39:51;17.90;;;13.53;;
5491;SDS011;2768;53.540;10.224;2024-03-07T18:45:48;20.30;;;13.90;;
5491;SDS011;2768;53.540;10.224;2024-03-07T18:51:43;18.47;;;13.00;;
5491;SDS011;2768;53.540;10.224;2024-03-07T18:57:40;17.90;;;13.07;;
5491;SDS011;2768;53.540;10.224;2024-03-07T19:03:36;16.37;;;12.57;;
5491;SDS011;2768;53.540;10.224;2024-03-07T19:09:29;17.40;;;13.87;;
5491;SDS011;2768;53.540;10.224;2024-03-07T19:15:24;15.43;;;13.30;;
5491;SDS011;2768;53.540;10.224;2024-03-07T19:21:18;15.13;;;12.60;;
5491;SDS011;2768;53.540;10.224;2024-03-07T19:27:12;14.27;;;11.97;;
5491;SDS011;2768;53.540;10.224;2024-03-07T19:33:08;16.17;;;12.57;;
5491;SDS011;2768;53.540;10.224;2024-03-07T19:39:08;16.27;;;12.10;;
5491;SDS011;2768;53.540;10.224;2024-03-07T19:45:04;14.80;;;12.73;;
5491;SDS011;2768;53.540;10.224;2024-03-07T19:50:58;14.20;;;12.07;;
5491;SDS011;2768;53.540;10.224;2024-03-07T19:56:54;16.23;;;12.33;;
5491;SDS011;2768;53.540;10.224;2024-03-07T20:02:55;16.70;;;12.33;;
5491;SDS011;2768;53.540;10.224;2024-03-07T20:08:51;17.10;;;12.60;;
5491;SDS011;2768;53.540;10.224;2024-03-07T20:14:50;17.30;;;13.37;;
5491;SDS011;2768;53.540;10.224;2024-03-07T20:20:43;17.27;;;12.87;;
5491;SDS011;2768;53.540;10.224;2024-03-07T20:26:38;22.97;;;12.80;;
5491;SDS011;2768;53.540;10.224;2024-03-07T20:32:33;15.67;;;12.47;;
5491;SDS011;2768;53.540;10.224;2024-03-07T20:38:27;18.10;;;14.07;;
5491;SDS011;2768;53.540;10.224;2024-03-07T20:44:21;15.57;;;12.43;;
5491;SDS011;2768;53.540;10.224;2024-03-07T20:50:18;15.87;;;12.57;;
5491;SDS011;2768;53.540;10.224;2024-03-07T20:56:13;14.00;;;12.00;;
5491;SDS011;2768;53.540;10.224;2024-03-07T21:02:08;15.93;;;13.20;;
5491;SDS011;2768;53.540;10.224;2024-03-07T21:08:05;16.93;;;13.87;;
5491;SDS011;2768;53.540;10.224;2024-03-07T21:14:01;13.73;;;11.83;;
5491;SDS011;2768;53.540;10.224;2024-03-07T21:19:55;17.13;;;12.60;;
5491;SDS011;2768;53.540;10.224;2024-03-07T21:25:50;16.20;;;12.60;;
5491;SDS011;2768;53.540;10.224;2024-03-07T21:31:43;16.20;;;12.40;;
5491;SDS011;2768;53.540;10.224;2024-03-07T21:37:37;16.20;;;11.80;;
5491;SDS011;2768;53.540;10.224;2024-03-07T21:43:33;14.03;;;12.43;;
5491;SDS011;2768;53.540;10.224;2024-03-07T21:49:27;14.60;;;11.73;;
5491;SDS011;2768;53.540;10.224;2024-03-07T21:55:29;14.97;;;12.00;;
5491;SDS011;2768;53.540;10.224;2024-03-07T22:01:33;17.27;;;13.50;;
5491;SDS011;2768;53.540;10.224;2024-03-07T22:07:28;15.23;;;12.17;;
5491;SDS011;2768;53.540;10.224;2024-03-07T22:13:22;13.23;;;11.67;;
5491;SDS011;2768;53.540;10.224;2024-03-07T22:19:16;13.37;;;11.97;;
5491;SDS011;2768;53.540;10.224;2024-03-07T22:25:10;14.63;;;12.47;;
5491;SDS011;2768;53.540;10.224;2024-03-07T22:31:04;15.73;;;12.33;;
5491;SDS011;2768;53.540;10.224;2024-03-07T22:37:03;15.03;;;11.70;;
5491;SDS011;2768;53.540;10.224;2024-03-07T22:42:58;15.60;;;11.10;;
5491;SDS011;2768;53.540;10.224;2024-03-07T22:48:51;17.87;;;12.07;;
5491;SDS011;2768;53.540;10.224;2024-03-07T22:54:48;17.93;;;13.23;;
5491;SDS011;2768;53.540;10.224;2024-03-07T23:00:41;14.73;;;11.87;;
5491;SDS011;2768;53.540;10.224;2024-03-07T23:06:36;17.83;;;12.20;;
5491;SDS011;2768;53.540;10.224;2024-03-07T23:12:31;15.67;;;11.13;;
5491;SDS011;2768;53.540;10.224;2024-03-07T23:18:24;17.07;;;11.77;;
5491;SDS011;2768;53.540;10.224;2024-03-07T23:24:18;14.70;;;11.57;;
5491;SDS011;2768;53.540;10.224;2024-03-07T23:30:13;13.60;;;10.90;;
5491;SDS011;2768;53.540;10.224;2024-03-07T23:36:09;13.77;;;11.70;;
5491;SDS011;2768;53.540;10.224;2024-03-07T23:42:04;14.93;;;12.33;;
5491;SDS011;2768;53.540;10.224;2024-03-07T23:47:59;16.40;;;11.80;;
5491;SDS011;2768;53.540;10.224;2024-03-07T23:53:53;15.73;;;12.57;;
5491;SDS011;2768;53.540;10.224;2024-03-07T23:59:46;15.67;;;11.97;;
